sensor_id;sensor_type;location;lat;lon;timestamp;P1;durP1;ratioP1;P2;durP2;ratioP2
7813;SDS011;3952;48.364;16.022;2022-09-09T00:00:12;1.40;;;1.10;;
7813;SDS011;3952;48.364;16.022;2022-09-09T00:02:40;1.13;;;1.13;;
7813;SDS011;3952;48.364;16.022;2022-09-09T00:05:17;2.23;;;1.60;;
7813;SDS011;3952;48.364;16.022;2022-09-09T00:07:52;1.73;;;1.50;;
7813;SDS011;3952;48.364;16.022;2022-09-09T00:10:26;2.43;;;1.90;;
7813;SDS011;3952;48.364;16.022;2022-09-09T00:12:58;1.53;;;1.53;;
7813;SDS011;3952;48.364;16.022;2022-09-09T00:15:31;1.63;;;1.53;;
7813;SDS011;3952;48.364;16.022;2022-09-09T00:18:07;1.60;;;1.60;;
7813;SDS011;3952;48.364;16.022;2022-09-09T00:20:45;2.23;;;1.77;;
7813;SDS011;3952;48.364;16.022;2022-09-09T00:23:20;4.47;;;2.10;;
7813;SDS011;3952;48.364;16.022;2022-09-09T00:25:54;2.67;;;2.33;;
7813;SDS011;3952;48.364;16.022;2022-09-09T00:28:27;3.27;;;1.70;;
7813;SDS011;3952;48.364;16.022;2022-09-09T00:30:59;1.87;;;1.80;;
7813;SDS011;3952;48.364;16.022;2022-09-09T00:33:35;1.67;;;1.67;;
7813;SDS011;3952;48.364;16.022;2022-09-09T00:36:04;2.00;;;1.90;;
7813;SDS011;3952;48.364;16.022;2022-09-09T00:38:42;2.00;;;1.90;;
7813;SDS011;3952;48.364;16.022;2022-09-09T00:41:18;2.43;;;1.80;;
7813;SDS011;3952;48.364;16.022;2022-09-09T00:43:51;1.90;;;1.80;;
7813;SDS011;3952;48.364;16.022;2022-09-09T00:49:20;1.50;;;1.50;;
7813;SDS011;3952;48.364;16.022;2022-09-09T00:52:02;1.50;;;1.50;;
7813;SDS011;3952;48.364;16.022;2022-09-09T00:54:40;1.40;;;1.40;;
7813;SDS011;3952;48.364;16.022;2022-09-09T00:57:21;1.60;;;1.60;;
7813;SDS011;3952;48.364;16.022;2022-09-09T00:59:56;1.60;;;1.50;;
7813;SDS011;3952;48.364;16.022;2022-09-09T01:02:32;1.57;;;1.47;;
7813;SDS011;3952;48.364;16.022;2022-09-09T01:05:07;1.60;;;1.50;;
7813;SDS011;3952;48.364;16.022;2022-09-09T01:07:41;1.30;;;1.30;;
7813;SDS011;3952;48.364;16.022;2022-09-09T01:10:16;1.27;;;1.27;;
7813;SDS011;3952;48.364;16.022;2022-09-09T01:12:52;1.47;;;1.37;;
7813;SDS011;3952;48.364;16.022;2022-09-09T01:15:24;2.40;;;1.60;;
7813;SDS011;3952;48.364;16.022;2022-09-09T01:17:55;1.57;;;1.47;;
7813;SDS011;3952;48.364;16.022;2022-09-09T01:20:29;2.00;;;1.70;;
7813;SDS011;3952;48.364;16.022;2022-09-09T01:23:16;1.57;;;1.47;;
7813;SDS011;3952;48.364;16.022;2022-09-09T01:26:08;2.37;;;1.77;;
7813;SDS011;3952;48.364;16.022;2022-09-09T01:28:43;4.70;;;1.60;;
7813;SDS011;3952;48.364;16.022;2022-09-09T01:31:14;1.70;;;1.60;;
7813;SDS011;3952;48.364;16.022;2022-09-09T01:33:44;1.70;;;1.63;;
7813;SDS011;3952;48.364;16.022;2022-09-09T01:36:12;2.10;;;2.00;;
7813;SDS011;3952;48.364;16.022;2022-09-09T01:38:46;2.07;;;1.97;;
7813;SDS011;3952;48.364;16.022;2022-09-09T01:41:15;2.43;;;1.73;;
7813;SDS011;3952;48.364;16.022;2022-09-09T01:43:42;1.33;;;1.30;;
7813;SDS011;3952;48.364;16.022;2022-09-09T01:46:10;1.70;;;1.60;;
7813;SDS011;3952;48.364;16.022;2022-09-09T01:48:38;1.70;;;1.60;;
7813;SDS011;3952;48.364;16.022;2022-09-09T01:51:08;1.50;;;1.50;;
7813;SDS011;3952;48.364;16.022;2022-09-09T01:53:36;2.43;;;2.00;;
7813;SDS011;3952;48.364;16.022;2022-09-09T01:56:08;2.60;;;1.93;;
7813;SDS011;3952;48.364;16.022;2022-09-09T01:58:50;1.50;;;1.50;;
7813;SDS011;3952;48.364;16.022;2022-09-09T02:01:27;1.60;;;1.60;;
7813;SDS011;3952;48.364;16.022;2022-09-09T02:04:03;2.10;;;1.53;;
7813;SDS011;3952;48.364;16.022;2022-09-09T02:06:39;4.10;;;1.80;;
7813;SDS011;3952;48.364;16.022;2022-09-09T02:09:07;1.80;;;1.80;;
7813;SDS011;3952;48.364;16.022;2022-09-09T02:11:39;1.90;;;1.80;;
7813;SDS011;3952;48.364;16.022;2022-09-09T02:14:10;1.80;;;1.70;;
7813;SDS011;3952;48.364;16.022;2022-09-09T02:16:43;1.80;;;1.70;;
7813;SDS011;3952;48.364;16.022;2022-09-09T02:19:16;2.00;;;1.90;;
7813;SDS011;3952;48.364;16.022;2022-09-09T02:21:51;1.57;;;1.57;;
7813;SDS011;3952;48.364;16.022;2022-09-09T02:24:21;1.37;;;1.37;;
7813;SDS011;3952;48.364;16.022;2022-09-09T02:26:51;1.70;;;1.60;;
7813;SDS011;3952;48.364;16.022;2022-09-09T02:29:21;1.70;;;1.60;;
7813;SDS011;3952;48.364;16.022;2022-09-09T02:31:51;1.93;;;1.83;;
7813;SDS011;3952;48.364;16.022;2022-09-09T02:34:22;1.80;;;1.80;;
7813;SDS011;3952;48.364;16.022;2022-09-09T02:36:53;2.37;;;2.10;;
7813;SDS011;3952;48.364;16.022;2022-09-09T02:39:21;3.03;;;2.10;;
7813;SDS011;3952;48.364;16.022;2022-09-09T02:41:50;1.77;;;1.77;;
7813;SDS011;3952;48.364;16.022;2022-09-09T02:44:18;1.70;;;1.70;;
7813;SDS011;3952;48.364;16.022;2022-09-09T02:46:50;1.57;;;1.57;;
7813;SDS011;3952;48.364;16.022;2022-09-09T02:49:34;1.63;;;1.53;;
7813;SDS011;3952;48.364;16.022;2022-09-09T02:52:11;2.20;;;1.57;;
7813;SDS011;3952;48.364;16.022;2022-09-09T02:54:41;1.40;;;1.40;;
7813;SDS011;3952;48.364;16.022;2022-09-09T02:57:12;1.47;;;1.47;;
7813;SDS011;3952;48.364;16.022;2022-09-09T02:59:44;1.90;;;1.80;;
7813;SDS011;3952;48.364;16.022;2022-09-09T03:02:12;2.27;;;2.17;;
7813;SDS011;3952;48.364;16.022;2022-09-09T03:04:40;2.33;;;2.23;;
7813;SDS011;3952;48.364;16.022;2022-09-09T03:07:09;2.23;;;2.10;;
7813;SDS011;3952;48.364;16.022;2022-09-09T03:09:37;2.33;;;2.10;;
7813;SDS011;3952;48.364;16.022;2022-09-09T03:12:04;3.80;;;1.90;;
7813;SDS011;3952;48.364;16.022;2022-09-09T03:14:33;2.23;;;2.13;;
7813;SDS011;3952;48.364;16.022;2022-09-09T03:17:01;2.20;;;2.10;;
7813;SDS011;3952;48.364;16.022;2022-09-09T03:19:28;7.43;;;2.60;;
7813;SDS011;3952;48.364;16.022;2022-09-09T03:21:55;3.07;;;2.37;;
7813;SDS011;3952;48.364;16.022;2022-09-09T03:24:23;2.70;;;2.50;;
7813;SDS011;3952;48.364;16.022;2022-09-09T03:26:50;2.37;;;2.27;;
7813;SDS011;3952;48.364;16.022;2022-09-09T03:29:18;2.63;;;2.47;;
7813;SDS011;3952;48.364;16.022;2022-09-09T03:31:46;2.50;;;2.40;;
7813;SDS011;3952;48.364;16.022;2022-09-09T03:34:14;3.90;;;3.03;;
7813;SDS011;3952;48.364;16.022;2022-09-09T03:36:41;5.83;;;3.10;;
7813;SDS011;3952;48.364;16.022;2022-09-09T03:39:08;3.20;;;2.93;;
7813;SDS011;3952;48.364;16.022;2022-09-09T03:41:35;3.90;;;3.43;;
7813;SDS011;3952;48.364;16.022;2022-09-09T03:44:03;3.57;;;3.37;;
7813;SDS011;3952;48.364;16.022;2022-09-09T03:46:30;2.60;;;2.40;;
7813;SDS011;3952;48.364;16.022;2022-09-09T03:49:00;3.20;;;3.00;;
7813;SDS011;3952;48.364;16.022;2022-09-09T03:51:27;2.67;;;2.57;;
7813;SDS011;3952;48.364;16.022;2022-09-09T03:53:55;2.93;;;2.73;;
7813;SDS011;3952;48.364;16.022;2022-09-09T03:58:51;2.70;;;2.60;;
7813;SDS011;3952;48.364;16.022;2022-09-09T04:01:18;2.90;;;2.70;;
7813;SDS011;3952;48.364;16.022;2022-09-09T04:03:45;2.43;;;2.33;;
7813;SDS011;3952;48.364;16.022;2022-09-09T04:06:14;3.33;;;3.03;;
7813;SDS011;3952;48.364;16.022;2022-09-09T04:08:42;3.20;;;3.00;;
7813;SDS011;3952;48.364;16.022;2022-09-09T04:11:10;3.07;;;2.87;;
7813;SDS011;3952;48.364;16.022;2022-09-09T04:13:37;3.27;;;2.60;;
7813;SDS011;3952;48.364;16.022;2022-09-09T04:16:05;5.53;;;3.10;;
7813;SDS011;3952;48.364;16.022;2022-09-09T04:18:33;5.77;;;2.87;;
7813;SDS011;3952;48.364;16.022;2022-09-09T04:21:00;3.17;;;2.87;;
7813;SDS011;3952;48.364;16.022;2022-09-09T04:23:30;3.30;;;3.10;;
7813;SDS011;3952;48.364;16.022;2022-09-09T04:25:59;3.40;;;3.17;;
7813;SDS011;3952;48.364;16.022;2022-09-09T04:28:29;3.73;;;3.43;;
7813;SDS011;3952;48.364;16.022;2022-09-09T04:31:03;3.40;;;3.20;;
7813;SDS011;3952;48.364;16.022;2022-09-09T04:33:31;3.93;;;3.30;;
7813;SDS011;3952;48.364;16.022;2022-09-09T04:35:58;7.30;;;3.80;;
7813;SDS011;3952;48.364;16.022;2022-09-09T04:38:26;12.50;;;4.50;;
7813;SDS011;3952;48.364;16.022;2022-09-09T04:40:54;3.60;;;3.37;;
7813;SDS011;3952;48.364;16.022;2022-09-09T04:43:22;3.60;;;3.40;;
7813;SDS011;3952;48.364;16.022;2022-09-09T04:45:50;3.53;;;3.33;;
7813;SDS011;3952;48.364;16.022;2022-09-09T04:48:18;2.93;;;2.73;;
7813;SDS011;3952;48.364;16.022;2022-09-09T04:50:53;2.63;;;2.53;;
7813;SDS011;3952;48.364;16.022;2022-09-09T04:53:21;2.50;;;2.40;;
7813;SDS011;3952;48.364;16.022;2022-09-09T04:55:50;2.40;;;2.30;;
7813;SDS011;3952;48.364;16.022;2022-09-09T04:58:19;1.83;;;1.83;;
7813;SDS011;3952;48.364;16.022;2022-09-09T05:00:47;2.43;;;2.30;;
7813;SDS011;3952;48.364;16.022;2022-09-09T05:03:16;2.63;;;2.43;;
7813;SDS011;3952;48.364;16.022;2022-09-09T05:05:44;2.37;;;2.27;;
7813;SDS011;3952;48.364;16.022;2022-09-09T05:08:11;2.70;;;2.60;;
7813;SDS011;3952;48.364;16.022;2022-09-09T05:10:38;3.07;;;2.60;;
7813;SDS011;3952;48.364;16.022;2022-09-09T05:13:07;2.93;;;2.73;;
7813;SDS011;3952;48.364;16.022;2022-09-09T05:15:35;2.57;;;2.47;;
7813;SDS011;3952;48.364;16.022;2022-09-09T05:18:03;2.53;;;2.37;;
7813;SDS011;3952;48.364;16.022;2022-09-09T05:20:30;3.33;;;3.10;;
7813;SDS011;3952;48.364;16.022;2022-09-09T05:22:57;3.10;;;3.00;;
7813;SDS011;3952;48.364;16.022;2022-09-09T05:25:24;2.57;;;2.47;;
7813;SDS011;3952;48.364;16.022;2022-09-09T05:27:52;2.73;;;2.60;;
7813;SDS011;3952;48.364;16.022;2022-09-09T05:30:20;9.67;;;3.33;;
7813;SDS011;3952;48.364;16.022;2022-09-09T05:32:51;37.33;;;3.83;;
7813;SDS011;3952;48.364;16.022;2022-09-09T05:35:18;12.63;;;3.17;;
7813;SDS011;3952;48.364;16.022;2022-09-09T05:37:45;3.47;;;3.17;;
7813;SDS011;3952;48.364;16.022;2022-09-09T05:40:13;2.63;;;2.53;;
7813;SDS011;3952;48.364;16.022;2022-09-09T05:42:40;2.67;;;2.57;;
7813;SDS011;3952;48.364;16.022;2022-09-09T05:45:08;2.80;;;2.70;;
7813;SDS011;3952;48.364;16.022;2022-09-09T05:47:35;2.50;;;2.40;;
7813;SDS011;3952;48.364;16.022;2022-09-09T05:50:04;2.60;;;2.50;;
7813;SDS011;3952;48.364;16.022;2022-09-09T05:52:33;2.37;;;2.27;;
7813;SDS011;3952;48.364;16.022;2022-09-09T05:55:00;2.50;;;2.40;;
7813;SDS011;3952;48.364;16.022;2022-09-09T05:57:29;2.10;;;2.00;;
7813;SDS011;3952;48.364;16.022;2022-09-09T05:59:56;1.77;;;1.77;;
7813;SDS011;3952;48.364;16.022;2022-09-09T06:02:24;1.77;;;1.77;;
7813;SDS011;3952;48.364;16.022;2022-09-09T06:04:51;2.20;;;2.10;;
7813;SDS011;3952;48.364;16.022;2022-09-09T06:07:21;2.60;;;2.50;;
7813;SDS011;3952;48.364;16.022;2022-09-09T06:09:48;2.13;;;2.03;;
7813;SDS011;3952;48.364;16.022;2022-09-09T06:12:16;2.40;;;2.30;;
7813;SDS011;3952;48.364;16.022;2022-09-09T06:14:43;2.30;;;2.20;;
7813;SDS011;3952;48.364;16.022;2022-09-09T06:17:11;2.53;;;2.43;;
7813;SDS011;3952;48.364;16.022;2022-09-09T06:19:38;2.40;;;2.30;;
7813;SDS011;3952;48.364;16.022;2022-09-09T06:22:05;2.50;;;2.40;;
7813;SDS011;3952;48.364;16.022;2022-09-09T06:24:34;3.30;;;2.40;;
7813;SDS011;3952;48.364;16.022;2022-09-09T06:27:01;2.70;;;2.60;;
7813;SDS011;3952;48.364;16.022;2022-09-09T06:29:28;3.10;;;2.90;;
7813;SDS011;3952;48.364;16.022;2022-09-09T06:31:55;4.03;;;3.73;;
7813;SDS011;3952;48.364;16.022;2022-09-09T06:34:23;3.80;;;3.50;;
7813;SDS011;3952;48.364;16.022;2022-09-09T06:36:50;4.37;;;4.17;;
7813;SDS011;3952;48.364;16.022;2022-09-09T06:39:17;5.30;;;3.80;;
7813;SDS011;3952;48.364;16.022;2022-09-09T06:41:47;4.10;;;3.87;;
7813;SDS011;3952;48.364;16.022;2022-09-09T06:44:14;5.63;;;3.83;;
7813;SDS011;3952;48.364;16.022;2022-09-09T06:46:42;4.17;;;3.97;;
7813;SDS011;3952;48.364;16.022;2022-09-09T06:49:09;4.53;;;4.10;;
7813;SDS011;3952;48.364;16.022;2022-09-09T06:51:37;4.40;;;4.00;;
7813;SDS011;3952;48.364;16.022;2022-09-09T06:54:08;4.13;;;3.73;;
7813;SDS011;3952;48.364;16.022;2022-09-09T06:56:36;4.00;;;3.80;;
7813;SDS011;3952;48.364;16.022;2022-09-09T06:59:07;4.13;;;3.87;;
7813;SDS011;3952;48.364;16.022;2022-09-09T07:01:36;3.30;;;3.10;;
7813;SDS011;3952;48.364;16.022;2022-09-09T07:04:06;3.53;;;3.20;;
7813;SDS011;3952;48.364;16.022;2022-09-09T07:06:36;3.43;;;3.17;;
7813;SDS011;3952;48.364;16.022;2022-09-09T07:09:05;3.10;;;2.90;;
7813;SDS011;3952;48.364;16.022;2022-09-09T07:11:34;4.17;;;3.13;;
7813;SDS011;3952;48.364;16.022;2022-09-09T07:14:05;3.63;;;2.40;;
7813;SDS011;3952;48.364;16.022;2022-09-09T07:16:34;3.80;;;2.03;;
7813;SDS011;3952;48.364;16.022;2022-09-09T07:19:02;6.73;;;2.03;;
7813;SDS011;3952;48.364;16.022;2022-09-09T07:21:30;1.80;;;1.80;;
7813;SDS011;3952;48.364;16.022;2022-09-09T07:23:58;1.80;;;1.70;;
7813;SDS011;3952;48.364;16.022;2022-09-09T07:26:27;1.63;;;1.53;;
7813;SDS011;3952;48.364;16.022;2022-09-09T07:28:55;1.47;;;1.40;;
7813;SDS011;3952;48.364;16.022;2022-09-09T07:31:25;1.30;;;1.20;;
7813;SDS011;3952;48.364;16.022;2022-09-09T07:33:53;1.20;;;1.20;;
7813;SDS011;3952;48.364;16.022;2022-09-09T07:36:21;1.57;;;1.20;;
7813;SDS011;3952;48.364;16.022;2022-09-09T07:38:50;1.37;;;1.30;;
7813;SDS011;3952;48.364;16.022;2022-09-09T07:41:19;4.87;;;1.50;;
7813;SDS011;3952;48.364;16.022;2022-09-09T07:43:49;1.17;;;1.17;;
7813;SDS011;3952;48.364;16.022;2022-09-09T07:46:19;1.13;;;1.10;;
7813;SDS011;3952;48.364;16.022;2022-09-09T07:48:49;1.30;;;1.20;;
7813;SDS011;3952;48.364;16.022;2022-09-09T07:51:18;2.33;;;1.20;;
7813;SDS011;3952;48.364;16.022;2022-09-09T07:53:48;2.53;;;1.27;;
7813;SDS011;3952;48.364;16.022;2022-09-09T07:56:18;0.90;;;0.90;;
7813;SDS011;3952;48.364;16.022;2022-09-09T07:58:50;1.13;;;0.97;;
7813;SDS011;3952;48.364;16.022;2022-09-09T08:01:19;1.27;;;1.17;;
7813;SDS011;3952;48.364;16.022;2022-09-09T08:03:52;2.60;;;1.30;;
7813;SDS011;3952;48.364;16.022;2022-09-09T08:06:20;1.70;;;1.23;;
7813;SDS011;3952;48.364;16.022;2022-09-09T08:08:49;1.60;;;1.47;;
7813;SDS011;3952;48.364;16.022;2022-09-09T08:11:17;1.90;;;1.33;;
7813;SDS011;3952;48.364;16.022;2022-09-09T08:13:45;4.00;;;1.17;;
7813;SDS011;3952;48.364;16.022;2022-09-09T08:16:14;1.20;;;1.20;;
7813;SDS011;3952;48.364;16.022;2022-09-09T08:18:43;1.43;;;1.33;;
7813;SDS011;3952;48.364;16.022;2022-09-09T08:21:12;2.43;;;1.00;;
7813;SDS011;3952;48.364;16.022;2022-09-09T08:23:43;5.20;;;1.30;;
7813;SDS011;3952;48.364;16.022;2022-09-09T08:26:12;2.60;;;1.17;;
7813;SDS011;3952;48.364;16.022;2022-09-09T08:28:42;1.47;;;1.00;;
7813;SDS011;3952;48.364;16.022;2022-09-09T08:31:10;0.87;;;0.87;;
7813;SDS011;3952;48.364;16.022;2022-09-09T08:33:39;1.27;;;1.10;;
7813;SDS011;3952;48.364;16.022;2022-09-09T08:36:09;2.33;;;1.40;;
7813;SDS011;3952;48.364;16.022;2022-09-09T08:38:40;2.00;;;1.23;;
7813;SDS011;3952;48.364;16.022;2022-09-09T08:41:15;1.27;;;1.20;;
7813;SDS011;3952;48.364;16.022;2022-09-09T08:44:00;0.90;;;0.90;;
7813;SDS011;3952;48.364;16.022;2022-09-09T08:46:33;1.27;;;1.10;;
7813;SDS011;3952;48.364;16.022;2022-09-09T08:52:08;3.27;;;1.10;;
7813;SDS011;3952;48.364;16.022;2022-09-09T08:54:41;2.30;;;1.23;;
7813;SDS011;3952;48.364;16.022;2022-09-09T08:57:09;2.37;;;1.27;;
7813;SDS011;3952;48.364;16.022;2022-09-09T08:59:41;1.00;;;1.00;;
7813;SDS011;3952;48.364;16.022;2022-09-09T09:02:09;1.87;;;1.07;;
7813;SDS011;3952;48.364;16.022;2022-09-09T09:04:50;0.80;;;0.80;;
7813;SDS011;3952;48.364;16.022;2022-09-09T09:07:37;0.80;;;0.80;;
7813;SDS011;3952;48.364;16.022;2022-09-09T09:10:21;1.17;;;1.07;;
7813;SDS011;3952;48.364;16.022;2022-09-09T09:12:59;1.20;;;1.20;;
7813;SDS011;3952;48.364;16.022;2022-09-09T09:15:30;2.30;;;1.20;;
7813;SDS011;3952;48.364;16.022;2022-09-09T09:18:02;1.40;;;1.07;;
7813;SDS011;3952;48.364;16.022;2022-09-09T09:20:32;2.27;;;1.30;;
7813;SDS011;3952;48.364;16.022;2022-09-09T09:23:12;1.30;;;0.97;;
7813;SDS011;3952;48.364;16.022;2022-09-09T09:25:46;1.63;;;1.10;;
7813;SDS011;3952;48.364;16.022;2022-09-09T09:28:15;1.57;;;0.83;;
7813;SDS011;3952;48.364;16.022;2022-09-09T09:30:44;1.37;;;0.90;;
7813;SDS011;3952;48.364;16.022;2022-09-09T09:33:18;0.93;;;0.90;;
7813;SDS011;3952;48.364;16.022;2022-09-09T09:35:50;2.73;;;0.73;;
7813;SDS011;3952;48.364;16.022;2022-09-09T09:38:20;1.20;;;0.77;;
7813;SDS011;3952;48.364;16.022;2022-09-09T09:40:49;0.90;;;0.90;;
7813;SDS011;3952;48.364;16.022;2022-09-09T09:43:20;0.80;;;0.80;;
7813;SDS011;3952;48.364;16.022;2022-09-09T09:45:50;1.50;;;0.87;;
7813;SDS011;3952;48.364;16.022;2022-09-09T09:48:17;1.05;;;0.95;;
7813;SDS011;3952;48.364;16.022;2022-09-09T09:50:48;2.15;;;0.80;;
7813;SDS011;3952;48.364;16.022;2022-09-09T09:53:23;0.80;;;0.80;;
7813;SDS011;3952;48.364;16.022;2022-09-09T09:55:55;0.80;;;0.77;;
7813;SDS011;3952;48.364;16.022;2022-09-09T09:58:25;0.90;;;0.90;;
7813;SDS011;3952;48.364;16.022;2022-09-09T10:00:57;0.50;;;0.50;;
7813;SDS011;3952;48.364;16.022;2022-09-09T10:03:26;0.98;;;0.70;;
7813;SDS011;3952;48.364;16.022;2022-09-09T10:05:55;2.03;;;0.88;;
7813;SDS011;3952;48.364;16.022;2022-09-09T10:08:25;1.30;;;0.70;;
7813;SDS011;3952;48.364;16.022;2022-09-09T10:10:59;2.10;;;0.80;;
7813;SDS011;3952;48.364;16.022;2022-09-09T10:13:36;0.70;;;0.70;;
7813;SDS011;3952;48.364;16.022;2022-09-09T10:16:15;1.73;;;0.60;;
7813;SDS011;3952;48.364;16.022;2022-09-09T10:19:02;0.80;;;0.80;;
7813;SDS011;3952;48.364;16.022;2022-09-09T10:21:51;0.65;;;0.55;;
7813;SDS011;3952;48.364;16.022;2022-09-09T10:27:36;1.38;;;0.63;;
7813;SDS011;3952;48.364;16.022;2022-09-09T10:30:11;1.50;;;0.52;;
7813;SDS011;3952;48.364;16.022;2022-09-09T10:32:46;1.02;;;0.98;;
7813;SDS011;3952;48.364;16.022;2022-09-09T10:35:24;0.60;;;0.60;;
7813;SDS011;3952;48.364;16.022;2022-09-09T10:38:14;0.80;;;0.80;;
7813;SDS011;3952;48.364;16.022;2022-09-09T10:40:59;0.60;;;0.60;;
7813;SDS011;3952;48.364;16.022;2022-09-09T10:43:42;2.38;;;0.90;;
7813;SDS011;3952;48.364;16.022;2022-09-09T10:46:27;0.50;;;0.50;;
7813;SDS011;3952;48.364;16.022;2022-09-09T10:49:03;0.70;;;0.70;;
7813;SDS011;3952;48.364;16.022;2022-09-09T10:51:43;0.52;;;0.52;;
7813;SDS011;3952;48.364;16.022;2022-09-09T10:54:22;0.55;;;0.55;;
7813;SDS011;3952;48.364;16.022;2022-09-09T10:57:00;0.68;;;0.68;;
7813;SDS011;3952;48.364;16.022;2022-09-09T10:59:36;0.60;;;0.60;;
7813;SDS011;3952;48.364;16.022;2022-09-09T11:02:12;0.73;;;0.73;;
7813;SDS011;3952;48.364;16.022;2022-09-09T11:04:45;1.08;;;0.85;;
7813;SDS011;3952;48.364;16.022;2022-09-09T11:07:28;0.77;;;0.77;;
7813;SDS011;3952;48.364;16.022;2022-09-09T11:10:11;2.10;;;0.80;;
7813;SDS011;3952;48.364;16.022;2022-09-09T11:12:46;0.82;;;0.82;;
7813;SDS011;3952;48.364;16.022;2022-09-09T11:15:18;0.57;;;0.50;;
7813;SDS011;3952;48.364;16.022;2022-09-09T11:17:50;0.75;;;0.75;;
7813;SDS011;3952;48.364;16.022;2022-09-09T11:20:21;0.60;;;0.60;;
7813;SDS011;3952;48.364;16.022;2022-09-09T11:22:50;0.77;;;0.75;;
7813;SDS011;3952;48.364;16.022;2022-09-09T11:25:23;2.13;;;0.90;;
7813;SDS011;3952;48.364;16.022;2022-09-09T11:28:03;0.88;;;0.88;;
7813;SDS011;3952;48.364;16.022;2022-09-09T11:30:46;2.10;;;0.90;;
7813;SDS011;3952;48.364;16.022;2022-09-09T11:33:34;1.92;;;0.63;;
7813;SDS011;3952;48.364;16.022;2022-09-09T11:39:34;1.08;;;0.95;;
7813;SDS011;3952;48.364;16.022;2022-09-09T11:42:23;0.73;;;0.73;;
7813;SDS011;3952;48.364;16.022;2022-09-09T11:44:50;1.77;;;1.02;;
7813;SDS011;3952;48.364;16.022;2022-09-09T11:47:23;0.63;;;0.60;;
7813;SDS011;3952;48.364;16.022;2022-09-09T11:49:55;0.90;;;0.90;;
7813;SDS011;3952;48.364;16.022;2022-09-09T11:52:36;0.50;;;0.50;;
7813;SDS011;3952;48.364;16.022;2022-09-09T11:55:08;0.93;;;0.85;;
7813;SDS011;3952;48.364;16.022;2022-09-09T11:57:38;0.70;;;0.70;;
7813;SDS011;3952;48.364;16.022;2022-09-09T12:03:02;0.80;;;0.80;;
7813;SDS011;3952;48.364;16.022;2022-09-09T12:05:37;0.68;;;0.68;;
7813;SDS011;3952;48.364;16.022;2022-09-09T12:08:08;0.68;;;0.68;;
7813;SDS011;3952;48.364;16.022;2022-09-09T12:10:38;2.47;;;1.00;;
7813;SDS011;3952;48.364;16.022;2022-09-09T12:13:15;0.60;;;0.60;;
7813;SDS011;3952;48.364;16.022;2022-09-09T12:15:48;0.70;;;0.70;;
7813;SDS011;3952;48.364;16.022;2022-09-09T12:18:22;1.27;;;1.02;;
7813;SDS011;3952;48.364;16.022;2022-09-09T12:20:52;1.08;;;0.90;;
7813;SDS011;3952;48.364;16.022;2022-09-09T12:23:29;1.55;;;0.90;;
7813;SDS011;3952;48.364;16.022;2022-09-09T12:29:11;1.10;;;1.00;;
7813;SDS011;3952;48.364;16.022;2022-09-09T12:31:46;0.90;;;0.90;;
7813;SDS011;3952;48.364;16.022;2022-09-09T12:34:23;0.90;;;0.85;;
7813;SDS011;3952;48.364;16.022;2022-09-09T12:36:59;1.02;;;0.70;;
7813;SDS011;3952;48.364;16.022;2022-09-09T12:39:32;1.58;;;0.93;;
7813;SDS011;3952;48.364;16.022;2022-09-09T12:42:03;1.17;;;0.70;;
7813;SDS011;3952;48.364;16.022;2022-09-09T12:44:31;1.40;;;1.10;;
7813;SDS011;3952;48.364;16.022;2022-09-09T12:46:59;0.77;;;0.77;;
7813;SDS011;3952;48.364;16.022;2022-09-09T12:49:31;0.80;;;0.80;;
7813;SDS011;3952;48.364;16.022;2022-09-09T12:52:02;0.70;;;0.70;;
7813;SDS011;3952;48.364;16.022;2022-09-09T12:54:33;0.70;;;0.70;;
7813;SDS011;3952;48.364;16.022;2022-09-09T12:57:02;1.17;;;0.90;;
7813;SDS011;3952;48.364;16.022;2022-09-09T12:59:34;1.30;;;1.08;;
7813;SDS011;3952;48.364;16.022;2022-09-09T13:02:11;1.42;;;0.98;;
7813;SDS011;3952;48.364;16.022;2022-09-09T13:04:46;1.90;;;1.00;;
7813;SDS011;3952;48.364;16.022;2022-09-09T13:07:15;0.80;;;0.80;;
7813;SDS011;3952;48.364;16.022;2022-09-09T13:09:43;0.80;;;0.80;;
7813;SDS011;3952;48.364;16.022;2022-09-09T13:12:12;2.10;;;1.10;;
7813;SDS011;3952;48.364;16.022;2022-09-09T13:14:43;1.17;;;1.02;;
7813;SDS011;3952;48.364;16.022;2022-09-09T13:17:18;1.52;;;0.80;;
7813;SDS011;3952;48.364;16.022;2022-09-09T13:19:49;1.83;;;0.65;;
7813;SDS011;3952;48.364;16.022;2022-09-09T13:22:20;0.65;;;0.65;;
7813;SDS011;3952;48.364;16.022;2022-09-09T13:25:03;3.10;;;1.10;;
7813;SDS011;3952;48.364;16.022;2022-09-09T13:27:32;0.68;;;0.68;;
7813;SDS011;3952;48.364;16.022;2022-09-09T13:32:48;2.15;;;1.23;;
7813;SDS011;3952;48.364;16.022;2022-09-09T13:35:28;2.13;;;0.90;;
7813;SDS011;3952;48.364;16.022;2022-09-09T13:37:56;2.72;;;1.15;;
7813;SDS011;3952;48.364;16.022;2022-09-09T13:40:25;0.87;;;0.80;;
7813;SDS011;3952;48.364;16.022;2022-09-09T13:42:54;1.13;;;1.02;;
7813;SDS011;3952;48.364;16.022;2022-09-09T13:45:24;2.90;;;1.00;;
7813;SDS011;3952;48.364;16.022;2022-09-09T13:47:52;2.10;;;1.00;;
7813;SDS011;3952;48.364;16.022;2022-09-09T13:50:21;1.30;;;1.30;;
7813;SDS011;3952;48.364;16.022;2022-09-09T13:52:51;2.13;;;1.60;;
7813;SDS011;3952;48.364;16.022;2022-09-09T13:55:20;2.50;;;2.00;;
7813;SDS011;3952;48.364;16.022;2022-09-09T13:57:51;3.23;;;1.60;;
7813;SDS011;3952;48.364;16.022;2022-09-09T14:00:19;1.70;;;1.60;;
7813;SDS011;3952;48.364;16.022;2022-09-09T14:02:47;1.63;;;1.53;;
7813;SDS011;3952;48.364;16.022;2022-09-09T14:05:14;6.57;;;1.70;;
7813;SDS011;3952;48.364;16.022;2022-09-09T14:07:42;4.63;;;1.40;;
7813;SDS011;3952;48.364;16.022;2022-09-09T14:10:12;1.50;;;1.40;;
7813;SDS011;3952;48.364;16.022;2022-09-09T14:12:39;2.47;;;1.30;;
7813;SDS011;3952;48.364;16.022;2022-09-09T14:15:07;1.47;;;1.33;;
7813;SDS011;3952;48.364;16.022;2022-09-09T14:17:36;1.73;;;1.40;;
7813;SDS011;3952;48.364;16.022;2022-09-09T14:20:04;1.77;;;1.20;;
7813;SDS011;3952;48.364;16.022;2022-09-09T14:22:33;1.20;;;1.20;;
7813;SDS011;3952;48.364;16.022;2022-09-09T14:25:01;1.33;;;1.13;;
7813;SDS011;3952;48.364;16.022;2022-09-09T14:27:30;1.10;;;1.10;;
7813;SDS011;3952;48.364;16.022;2022-09-09T14:29:58;0.90;;;0.90;;
7813;SDS011;3952;48.364;16.022;2022-09-09T14:32:26;2.23;;;1.07;;
7813;SDS011;3952;48.364;16.022;2022-09-09T14:34:54;0.87;;;0.87;;
7813;SDS011;3952;48.364;16.022;2022-09-09T14:37:21;3.47;;;1.40;;
7813;SDS011;3952;48.364;16.022;2022-09-09T14:39:49;2.00;;;1.43;;
7813;SDS011;3952;48.364;16.022;2022-09-09T14:42:16;2.40;;;1.50;;
7813;SDS011;3952;48.364;16.022;2022-09-09T14:44:45;1.73;;;1.40;;
7813;SDS011;3952;48.364;16.022;2022-09-09T14:47:12;2.37;;;1.40;;
7813;SDS011;3952;48.364;16.022;2022-09-09T14:49:40;2.07;;;1.60;;
7813;SDS011;3952;48.364;16.022;2022-09-09T14:52:07;2.67;;;1.73;;
7813;SDS011;3952;48.364;16.022;2022-09-09T14:54:34;1.47;;;1.37;;
7813;SDS011;3952;48.364;16.022;2022-09-09T14:57:02;2.30;;;1.43;;
7813;SDS011;3952;48.364;16.022;2022-09-09T14:59:29;1.70;;;1.60;;
7813;SDS011;3952;48.364;16.022;2022-09-09T15:01:58;1.97;;;1.80;;
7813;SDS011;3952;48.364;16.022;2022-09-09T15:04:29;1.70;;;1.60;;
7813;SDS011;3952;48.364;16.022;2022-09-09T15:06:56;1.87;;;1.63;;
7813;SDS011;3952;48.364;16.022;2022-09-09T15:09:23;1.53;;;1.43;;
7813;SDS011;3952;48.364;16.022;2022-09-09T15:11:51;1.93;;;1.83;;
7813;SDS011;3952;48.364;16.022;2022-09-09T15:14:18;3.63;;;1.80;;
7813;SDS011;3952;48.364;16.022;2022-09-09T15:16:45;2.97;;;1.90;;
7813;SDS011;3952;48.364;16.022;2022-09-09T15:19:14;2.20;;;1.70;;
7813;SDS011;3952;48.364;16.022;2022-09-09T15:21:41;3.70;;;1.97;;
7813;SDS011;3952;48.364;16.022;2022-09-09T15:24:08;4.53;;;1.77;;
7813;SDS011;3952;48.364;16.022;2022-09-09T15:26:36;1.93;;;1.83;;
7813;SDS011;3952;48.364;16.022;2022-09-09T15:29:04;2.40;;;1.60;;
7813;SDS011;3952;48.364;16.022;2022-09-09T15:31:32;1.90;;;1.80;;
7813;SDS011;3952;48.364;16.022;2022-09-09T15:34:00;2.17;;;1.97;;
7813;SDS011;3952;48.364;16.022;2022-09-09T15:36:31;2.57;;;1.50;;
7813;SDS011;3952;48.364;16.022;2022-09-09T15:38:59;3.30;;;1.40;;
7813;SDS011;3952;48.364;16.022;2022-09-09T15:41:27;2.00;;;1.90;;
7813;SDS011;3952;48.364;16.022;2022-09-09T15:43:56;2.50;;;1.80;;
7813;SDS011;3952;48.364;16.022;2022-09-09T15:46:25;3.07;;;1.57;;